sensor_id;sensor_type;location;lat;lon;timestamp;P1;durP1;ratioP1;P2;durP2;ratioP2
18732;SDS011;9495;51.210;2.934;2022-11-20T00:01:27;58.63;;;31.53;;
18732;SDS011;9495;51.210;2.934;2022-11-20T00:03:56;53.73;;;29.57;;
18732;SDS011;9495;51.210;2.934;2022-11-20T00:06:26;55.20;;;31.03;;
18732;SDS011;9495;51.210;2.934;2022-11-20T00:08:57;54.03;;;29.07;;
18732;SDS011;9495;51.210;2.934;2022-11-20T00:11:28;51.07;;;28.77;;
18732;SDS011;9495;51.210;2.934;2022-11-20T00:13:57;53.57;;;30.50;;
18732;SDS011;9495;51.210;2.934;2022-11-20T00:16:28;53.77;;;30.03;;
18732;SDS011;9495;51.210;2.934;2022-11-20T00:19:00;53.33;;;29.20;;
18732;SDS011;9495;51.210;2.934;2022-11-20T00:21:29;57.80;;;31.90;;
18732;SDS011;9495;51.210;2.934;2022-11-20T00:23:57;57.77;;;30.43;;
18732;SDS011;9495;51.210;2.934;2022-11-20T00:26:26;57.97;;;32.97;;
18732;SDS011;9495;51.210;2.934;2022-11-20T00:28:55;62.47;;;32.93;;
18732;SDS011;9495;51.210;2.934;2022-11-20T00:31:25;63.50;;;32.53;;
18732;SDS011;9495;51.210;2.934;2022-11-20T00:33:54;63.90;;;33.00;;
18732;SDS011;9495;51.210;2.934;2022-11-20T00:36:24;61.43;;;33.10;;
18732;SDS011;9495;51.210;2.934;2022-11-20T00:38:54;61.40;;;32.67;;
18732;SDS011;9495;51.210;2.934;2022-11-20T00:41:24;61.90;;;31.80;;
18732;SDS011;9495;51.210;2.934;2022-11-20T00:43:53;63.53;;;33.03;;
18732;SDS011;9495;51.210;2.934;2022-11-20T00:46:22;61.30;;;32.80;;
18732;SDS011;9495;51.210;2.934;2022-11-20T00:48:52;64.80;;;34.40;;
18732;SDS011;9495;51.210;2.934;2022-11-20T00:51:20;64.17;;;33.13;;
18732;SDS011;9495;51.210;2.934;2022-11-20T00:53:51;60.20;;;33.07;;
18732;SDS011;9495;51.210;2.934;2022-11-20T00:56:22;63.90;;;34.97;;
18732;SDS011;9495;51.210;2.934;2022-11-20T00:58:50;70.00;;;35.23;;
18732;SDS011;9495;51.210;2.934;2022-11-20T01:01:19;61.50;;;31.67;;
18732;SDS011;9495;51.210;2.934;2022-11-20T01:03:51;70.07;;;35.90;;
18732;SDS011;9495;51.210;2.934;2022-11-20T01:06:21;67.13;;;34.90;;
18732;SDS011;9495;51.210;2.934;2022-11-20T01:08:52;68.90;;;35.20;;
18732;SDS011;9495;51.210;2.934;2022-11-20T01:11:22;69.83;;;35.27;;
18732;SDS011;9495;51.210;2.934;2022-11-20T01:13:52;76.17;;;35.97;;
18732;SDS011;9495;51.210;2.934;2022-11-20T01:16:21;71.93;;;35.87;;
18732;SDS011;9495;51.210;2.934;2022-11-20T01:18:51;77.80;;;35.13;;
18732;SDS011;9495;51.210;2.934;2022-11-20T01:21:21;72.87;;;36.80;;
18732;SDS011;9495;51.210;2.934;2022-11-20T01:23:52;78.60;;;37.00;;
18732;SDS011;9495;51.210;2.934;2022-11-20T01:26:21;72.73;;;37.73;;
18732;SDS011;9495;51.210;2.934;2022-11-20T01:28:51;77.23;;;37.83;;
18732;SDS011;9495;51.210;2.934;2022-11-20T01:31:20;77.87;;;37.67;;
18732;SDS011;9495;51.210;2.934;2022-11-20T01:33:50;79.90;;;37.80;;
18732;SDS011;9495;51.210;2.934;2022-11-20T01:36:21;78.27;;;37.13;;
18732;SDS011;9495;51.210;2.934;2022-11-20T01:38:52;77.27;;;37.37;;
18732;SDS011;9495;51.210;2.934;2022-11-20T01:41:22;81.10;;;37.70;;
18732;SDS011;9495;51.210;2.934;2022-11-20T01:44:04;81.07;;;39.83;;
18732;SDS011;9495;51.210;2.934;2022-11-20T01:46:33;82.20;;;38.87;;
18732;SDS011;9495;51.210;2.934;2022-11-20T01:49:05;87.17;;;39.57;;
18732;SDS011;9495;51.210;2.934;2022-11-20T01:51:39;89.67;;;38.33;;
18732;SDS011;9495;51.210;2.934;2022-11-20T01:54:12;82.63;;;37.63;;
18732;SDS011;9495;51.210;2.934;2022-11-20T01:56:44;87.60;;;39.13;;
18732;SDS011;9495;51.210;2.934;2022-11-20T01:59:14;82.80;;;38.70;;
18732;SDS011;9495;51.210;2.934;2022-11-20T02:01:45;88.03;;;39.90;;
18732;SDS011;9495;51.210;2.934;2022-11-20T02:04:13;84.10;;;39.83;;
18732;SDS011;9495;51.210;2.934;2022-11-20T02:06:44;83.80;;;38.87;;
18732;SDS011;9495;51.210;2.934;2022-11-20T02:09:17;85.53;;;40.73;;
18732;SDS011;9495;51.210;2.934;2022-11-20T02:11:46;87.87;;;40.47;;
18732;SDS011;9495;51.210;2.934;2022-11-20T02:14:14;82.77;;;39.60;;
18732;SDS011;9495;51.210;2.934;2022-11-20T02:16:43;89.70;;;41.37;;
18732;SDS011;9495;51.210;2.934;2022-11-20T02:19:16;87.83;;;40.50;;
18732;SDS011;9495;51.210;2.934;2022-11-20T02:21:51;88.60;;;40.27;;
18732;SDS011;9495;51.210;2.934;2022-11-20T02:24:28;92.67;;;41.27;;
18732;SDS011;9495;51.210;2.934;2022-11-20T02:26:57;102.40;;;42.67;;
18732;SDS011;9495;51.210;2.934;2022-11-20T02:29:31;101.37;;;42.50;;
18732;SDS011;9495;51.210;2.934;2022-11-20T02:32:03;98.47;;;43.43;;
18732;SDS011;9495;51.210;2.934;2022-11-20T02:34:31;100.20;;;42.37;;
18732;SDS011;9495;51.210;2.934;2022-11-20T02:37:00;98.80;;;41.70;;
18732;SDS011;9495;51.210;2.934;2022-11-20T02:39:30;101.67;;;43.17;;
18732;SDS011;9495;51.210;2.934;2022-11-20T02:42:00;106.07;;;44.70;;
18732;SDS011;9495;51.210;2.934;2022-11-20T02:44:29;97.77;;;42.47;;
18732;SDS011;9495;51.210;2.934;2022-11-20T02:46:58;105.20;;;44.13;;
18732;SDS011;9495;51.210;2.934;2022-11-20T02:49:26;107.03;;;42.40;;
18732;SDS011;9495;51.210;2.934;2022-11-20T02:51:55;105.27;;;42.77;;
18732;SDS011;9495;51.210;2.934;2022-11-20T02:54:23;105.67;;;42.83;;
18732;SDS011;9495;51.210;2.934;2022-11-20T02:56:54;114.07;;;43.30;;
18732;SDS011;9495;51.210;2.934;2022-11-20T02:59:22;105.27;;;41.83;;
18732;SDS011;9495;51.210;2.934;2022-11-20T03:01:50;113.33;;;44.43;;
18732;SDS011;9495;51.210;2.934;2022-11-20T03:04:19;110.90;;;44.87;;
18732;SDS011;9495;51.210;2.934;2022-11-20T03:06:47;116.03;;;46.23;;
18732;SDS011;9495;51.210;2.934;2022-11-20T03:09:15;110.73;;;46.13;;
18732;SDS011;9495;51.210;2.934;2022-11-20T03:11:44;118.67;;;46.77;;
18732;SDS011;9495;51.210;2.934;2022-11-20T03:14:14;113.03;;;46.23;;
18732;SDS011;9495;51.210;2.934;2022-11-20T03:16:42;113.57;;;44.57;;
18732;SDS011;9495;51.210;2.934;2022-11-20T03:19:11;120.17;;;46.37;;
18732;SDS011;9495;51.210;2.934;2022-11-20T03:21:40;119.90;;;45.63;;
18732;SDS011;9495;51.210;2.934;2022-11-20T03:24:09;115.67;;;44.93;;
18732;SDS011;9495;51.210;2.934;2022-11-20T03:26:38;116.83;;;47.80;;
18732;SDS011;9495;51.210;2.934;2022-11-20T03:29:07;119.13;;;47.17;;
18732;SDS011;9495;51.210;2.934;2022-11-20T03:31:37;132.40;;;47.37;;
18732;SDS011;9495;51.210;2.934;2022-11-20T03:34:07;126.20;;;45.73;;
18732;SDS011;9495;51.210;2.934;2022-11-20T03:36:37;139.00;;;47.83;;
18732;SDS011;9495;51.210;2.934;2022-11-20T03:39:06;139.90;;;49.67;;
18732;SDS011;9495;51.210;2.934;2022-11-20T03:41:35;136.17;;;46.83;;
18732;SDS011;9495;51.210;2.934;2022-11-20T03:44:05;135.57;;;47.00;;
18732;SDS011;9495;51.210;2.934;2022-11-20T03:46:36;132.23;;;48.37;;
18732;SDS011;9495;51.210;2.934;2022-11-20T03:49:05;132.90;;;46.67;;
18732;SDS011;9495;51.210;2.934;2022-11-20T03:51:34;133.97;;;47.67;;
18732;SDS011;9495;51.210;2.934;2022-11-20T03:54:04;137.87;;;46.80;;
18732;SDS011;9495;51.210;2.934;2022-11-20T03:56:34;136.37;;;47.57;;
18732;SDS011;9495;51.210;2.934;2022-11-20T03:59:04;133.33;;;47.17;;
18732;SDS011;9495;51.210;2.934;2022-11-20T04:01:33;139.30;;;47.07;;
18732;SDS011;9495;51.210;2.934;2022-11-20T04:04:04;145.97;;;49.50;;
18732;SDS011;9495;51.210;2.934;2022-11-20T04:06:33;146.00;;;51.23;;
18732;SDS011;9495;51.210;2.934;2022-11-20T04:09:03;151.77;;;49.77;;
18732;SDS011;9495;51.210;2.934;2022-11-20T04:11:33;152.73;;;48.93;;
18732;SDS011;9495;51.210;2.934;2022-11-20T04:14:03;146.67;;;49.17;;
18732;SDS011;9495;51.210;2.934;2022-11-20T04:16:32;154.80;;;51.10;;
18732;SDS011;9495;51.210;2.934;2022-11-20T04:19:03;146.27;;;49.53;;
18732;SDS011;9495;51.210;2.934;2022-11-20T04:21:33;156.20;;;51.57;;
18732;SDS011;9495;51.210;2.934;2022-11-20T04:24:02;156.80;;;51.63;;
18732;SDS011;9495;51.210;2.934;2022-11-20T04:26:31;158.27;;;52.23;;
18732;SDS011;9495;51.210;2.934;2022-11-20T04:29:00;146.73;;;48.10;;
18732;SDS011;9495;51.210;2.934;2022-11-20T04:31:29;146.07;;;51.03;;
18732;SDS011;9495;51.210;2.934;2022-11-20T04:33:58;143.60;;;50.40;;
18732;SDS011;9495;51.210;2.934;2022-11-20T04:36:29;162.20;;;54.93;;
18732;SDS011;9495;51.210;2.934;2022-11-20T04:38:58;145.03;;;50.37;;
18732;SDS011;9495;51.210;2.934;2022-11-20T04:41:28;160.47;;;46.47;;
18732;SDS011;9495;51.210;2.934;2022-11-20T04:43:58;152.57;;;50.83;;
18732;SDS011;9495;51.210;2.934;2022-11-20T04:46:30;167.70;;;52.90;;
18732;SDS011;9495;51.210;2.934;2022-11-20T04:48:59;157.73;;;50.17;;
18732;SDS011;9495;51.210;2.934;2022-11-20T04:51:29;167.90;;;55.10;;
18732;SDS011;9495;51.210;2.934;2022-11-20T04:53:57;152.63;;;51.30;;
18732;SDS011;9495;51.210;2.934;2022-11-20T04:56:26;153.40;;;49.87;;
18732;SDS011;9495;51.210;2.934;2022-11-20T04:58:54;148.70;;;41.43;;
18732;SDS011;9495;51.210;2.934;2022-11-20T05:01:23;160.50;;;53.17;;
18732;SDS011;9495;51.210;2.934;2022-11-20T05:03:52;182.77;;;58.03;;
18732;SDS011;9495;51.210;2.934;2022-11-20T05:06:21;178.03;;;51.27;;
18732;SDS011;9495;51.210;2.934;2022-11-20T05:08:50;173.83;;;52.50;;
18732;SDS011;9495;51.210;2.934;2022-11-20T05:11:19;181.37;;;57.17;;
18732;SDS011;9495;51.210;2.934;2022-11-20T05:13:49;188.03;;;57.30;;
18732;SDS011;9495;51.210;2.934;2022-11-20T05:16:19;183.27;;;56.73;;
18732;SDS011;9495;51.210;2.934;2022-11-20T05:18:48;189.30;;;56.77;;
18732;SDS011;9495;51.210;2.934;2022-11-20T05:21:17;174.07;;;55.83;;
18732;SDS011;9495;51.210;2.934;2022-11-20T05:23:46;188.93;;;59.10;;
18732;SDS011;9495;51.210;2.934;2022-11-20T05:26:16;178.93;;;56.20;;
18732;SDS011;9495;51.210;2.934;2022-11-20T05:28:46;166.43;;;54.60;;
18732;SDS011;9495;51.210;2.934;2022-11-20T05:31:15;172.20;;;54.23;;
18732;SDS011;9495;51.210;2.934;2022-11-20T05:33:52;158.83;;;51.27;;
18732;SDS011;9495;51.210;2.934;2022-11-20T05:36:20;154.03;;;49.83;;
18732;SDS011;9495;51.210;2.934;2022-11-20T05:38:49;159.23;;;51.20;;
18732;SDS011;9495;51.210;2.934;2022-11-20T05:41:28;162.07;;;48.27;;
18732;SDS011;9495;51.210;2.934;2022-11-20T05:43:59;153.97;;;52.10;;
18732;SDS011;9495;51.210;2.934;2022-11-20T05:46:28;139.97;;;45.60;;
18732;SDS011;9495;51.210;2.934;2022-11-20T05:48:56;163.07;;;50.33;;
18732;SDS011;9495;51.210;2.934;2022-11-20T05:51:25;153.10;;;49.67;;
18732;SDS011;9495;51.210;2.934;2022-11-20T05:53:53;147.40;;;43.27;;
18732;SDS011;9495;51.210;2.934;2022-11-20T05:56:24;171.57;;;51.67;;
18732;SDS011;9495;51.210;2.934;2022-11-20T05:58:53;166.17;;;48.47;;
18732;SDS011;9495;51.210;2.934;2022-11-20T06:01:23;162.60;;;46.50;;
18732;SDS011;9495;51.210;2.934;2022-11-20T06:03:52;185.97;;;50.70;;
18732;SDS011;9495;51.210;2.934;2022-11-20T06:06:21;193.60;;;51.97;;
18732;SDS011;9495;51.210;2.934;2022-11-20T06:08:51;189.87;;;50.97;;
18732;SDS011;9495;51.210;2.934;2022-11-20T06:11:20;173.57;;;46.30;;
18732;SDS011;9495;51.210;2.934;2022-11-20T06:13:49;203.80;;;52.50;;
18732;SDS011;9495;51.210;2.934;2022-11-20T06:16:19;190.57;;;51.80;;
18732;SDS011;9495;51.210;2.934;2022-11-20T06:18:48;227.30;;;53.23;;
18732;SDS011;9495;51.210;2.934;2022-11-20T06:21:17;211.33;;;53.90;;
18732;SDS011;9495;51.210;2.934;2022-11-20T06:23:46;207.10;;;49.30;;
18732;SDS011;9495;51.210;2.934;2022-11-20T06:26:16;223.20;;;52.30;;
18732;SDS011;9495;51.210;2.934;2022-11-20T06:28:45;275.40;;;57.90;;
18732;SDS011;9495;51.210;2.934;2022-11-20T06:31:14;237.13;;;54.30;;
18732;SDS011;9495;51.210;2.934;2022-11-20T06:33:45;245.40;;;56.10;;
18732;SDS011;9495;51.210;2.934;2022-11-20T06:36:14;222.37;;;52.03;;
18732;SDS011;9495;51.210;2.934;2022-11-20T06:38:44;255.67;;;57.60;;
18732;SDS011;9495;51.210;2.934;2022-11-20T06:41:13;275.10;;;59.50;;
18732;SDS011;9495;51.210;2.934;2022-11-20T06:43:42;295.63;;;59.47;;
18732;SDS011;9495;51.210;2.934;2022-11-20T06:46:10;246.13;;;57.63;;
18732;SDS011;9495;51.210;2.934;2022-11-20T06:48:39;258.17;;;55.20;;
18732;SDS011;9495;51.210;2.934;2022-11-20T06:51:09;268.50;;;56.70;;
18732;SDS011;9495;51.210;2.934;2022-11-20T06:53:38;250.80;;;55.73;;
18732;SDS011;9495;51.210;2.934;2022-11-20T06:56:06;260.43;;;56.87;;
18732;SDS011;9495;51.210;2.934;2022-11-20T06:58:35;237.17;;;53.40;;
18732;SDS011;9495;51.210;2.934;2022-11-20T07:01:05;243.50;;;55.90;;
18732;SDS011;9495;51.210;2.934;2022-11-20T07:03:35;217.30;;;50.57;;
18732;SDS011;9495;51.210;2.934;2022-11-20T07:06:04;216.87;;;54.63;;
18732;SDS011;9495;51.210;2.934;2022-11-20T07:08:34;249.80;;;54.97;;
18732;SDS011;9495;51.210;2.934;2022-11-20T07:11:03;225.87;;;53.60;;
18732;SDS011;9495;51.210;2.934;2022-11-20T07:13:33;224.27;;;55.20;;
18732;SDS011;9495;51.210;2.934;2022-11-20T07:16:02;219.30;;;51.50;;
18732;SDS011;9495;51.210;2.934;2022-11-20T07:18:31;205.33;;;52.40;;
18732;SDS011;9495;51.210;2.934;2022-11-20T07:21:00;204.73;;;51.33;;
18732;SDS011;9495;51.210;2.934;2022-11-20T07:23:28;193.50;;;50.03;;
18732;SDS011;9495;51.210;2.934;2022-11-20T07:25:58;190.70;;;50.00;;
18732;SDS011;9495;51.210;2.934;2022-11-20T07:28:30;184.23;;;45.67;;
18732;SDS011;9495;51.210;2.934;2022-11-20T07:30:58;188.93;;;49.83;;
18732;SDS011;9495;51.210;2.934;2022-11-20T07:33:27;190.83;;;49.50;;
18732;SDS011;9495;51.210;2.934;2022-11-20T07:35:56;185.00;;;50.53;;
18732;SDS011;9495;51.210;2.934;2022-11-20T07:38:26;183.07;;;51.40;;
18732;SDS011;9495;51.210;2.934;2022-11-20T07:40:54;192.53;;;46.40;;
18732;SDS011;9495;51.210;2.934;2022-11-20T07:43:25;186.23;;;48.37;;
18732;SDS011;9495;51.210;2.934;2022-11-20T07:45:54;166.27;;;44.53;;
18732;SDS011;9495;51.210;2.934;2022-11-20T07:48:23;176.90;;;49.03;;
18732;SDS011;9495;51.210;2.934;2022-11-20T07:50:53;168.73;;;47.77;;
18732;SDS011;9495;51.210;2.934;2022-11-20T07:53:21;176.73;;;47.30;;
18732;SDS011;9495;51.210;2.934;2022-11-20T07:55:49;171.33;;;46.13;;
18732;SDS011;9495;51.210;2.934;2022-11-20T07:58:19;169.90;;;47.97;;
18732;SDS011;9495;51.210;2.934;2022-11-20T08:00:49;165.87;;;46.97;;
18732;SDS011;9495;51.210;2.934;2022-11-20T08:03:17;160.27;;;43.87;;
18732;SDS011;9495;51.210;2.934;2022-11-20T08:05:50;142.37;;;43.13;;
18732;SDS011;9495;51.210;2.934;2022-11-20T08:08:19;155.87;;;44.63;;
18732;SDS011;9495;51.210;2.934;2022-11-20T08:10:47;164.73;;;45.53;;
18732;SDS011;9495;51.210;2.934;2022-11-20T08:13:15;144.83;;;42.50;;
18732;SDS011;9495;51.210;2.934;2022-11-20T08:16:03;149.07;;;43.67;;
18732;SDS011;9495;51.210;2.934;2022-11-20T08:18:32;141.30;;;37.77;;
18732;SDS011;9495;51.210;2.934;2022-11-20T08:21:01;130.17;;;41.97;;
18732;SDS011;9495;51.210;2.934;2022-11-20T08:23:31;133.47;;;43.27;;
18732;SDS011;9495;51.210;2.934;2022-11-20T08:25:59;132.77;;;41.87;;
18732;SDS011;9495;51.210;2.934;2022-11-20T08:28:27;135.50;;;41.77;;
18732;SDS011;9495;51.210;2.934;2022-11-20T08:30:57;132.30;;;44.37;;
18732;SDS011;9495;51.210;2.934;2022-11-20T08:33:28;137.27;;;44.23;;
18732;SDS011;9495;51.210;2.934;2022-11-20T08:35:59;124.47;;;40.30;;
18732;SDS011;9495;51.210;2.934;2022-11-20T08:38:28;112.60;;;38.33;;
18732;SDS011;9495;51.210;2.934;2022-11-20T08:40:57;115.80;;;39.07;;
18732;SDS011;9495;51.210;2.934;2022-11-20T08:43:39;111.67;;;38.97;;
18732;SDS011;9495;51.210;2.934;2022-11-20T08:46:08;105.00;;;39.07;;
18732;SDS011;9495;51.210;2.934;2022-11-20T08:48:37;107.23;;;37.53;;
18732;SDS011;9495;51.210;2.934;2022-11-20T08:51:06;106.50;;;36.17;;
18732;SDS011;9495;51.210;2.934;2022-11-20T08:53:34;97.03;;;36.60;;
18732;SDS011;9495;51.210;2.934;2022-11-20T08:56:02;89.67;;;34.60;;
18732;SDS011;9495;51.210;2.934;2022-11-20T08:58:31;84.07;;;31.70;;
18732;SDS011;9495;51.210;2.934;2022-11-20T09:01:19;89.07;;;31.07;;
18732;SDS011;9495;51.210;2.934;2022-11-20T09:03:51;80.37;;;32.43;;
18732;SDS011;9495;51.210;2.934;2022-11-20T09:06:19;72.87;;;32.43;;
18732;SDS011;9495;51.210;2.934;2022-11-20T09:08:51;78.03;;;31.30;;
18732;SDS011;9495;51.210;2.934;2022-11-20T09:11:20;75.93;;;30.63;;
18732;SDS011;9495;51.210;2.934;2022-11-20T09:13:48;80.43;;;30.57;;
18732;SDS011;9495;51.210;2.934;2022-11-20T09:16:16;68.30;;;28.07;;
18732;SDS011;9495;51.210;2.934;2022-11-20T09:18:45;72.37;;;28.07;;
18732;SDS011;9495;51.210;2.934;2022-11-20T09:21:34;68.33;;;26.97;;
18732;SDS011;9495;51.210;2.934;2022-11-20T09:24:02;55.43;;;26.37;;
18732;SDS011;9495;51.210;2.934;2022-11-20T09:26:32;54.73;;;24.30;;
18732;SDS011;9495;51.210;2.934;2022-11-20T09:29:00;56.40;;;24.07;;
18732;SDS011;9495;51.210;2.934;2022-11-20T09:31:28;50.57;;;20.87;;
18732;SDS011;9495;51.210;2.934;2022-11-20T09:33:57;49.10;;;20.20;;
18732;SDS011;9495;51.210;2.934;2022-11-20T09:36:25;40.03;;;19.57;;
18732;SDS011;9495;51.210;2.934;2022-11-20T09:38:55;39.43;;;18.53;;
18732;SDS011;9495;51.210;2.934;2022-11-20T09:41:31;39.83;;;19.73;;
18732;SDS011;9495;51.210;2.934;2022-11-20T09:44:25;38.30;;;18.63;;
18732;SDS011;9495;51.210;2.934;2022-11-20T09:47:07;33.07;;;14.77;;
18732;SDS011;9495;51.210;2.934;2022-11-20T09:49:42;29.47;;;15.53;;
18732;SDS011;9495;51.210;2.934;2022-11-20T09:52:29;26.37;;;15.23;;
18732;SDS011;9495;51.210;2.934;2022-11-20T09:55:08;27.07;;;15.10;;
18732;SDS011;9495;51.210;2.934;2022-11-20T09:57:39;25.27;;;14.63;;
18732;SDS011;9495;51.210;2.934;2022-11-20T10:00:11;24.60;;;13.43;;
18732;SDS011;9495;51.210;2.934;2022-11-20T10:02:42;28.37;;;12.77;;
18732;SDS011;9495;51.210;2.934;2022-11-20T10:05:15;26.17;;;12.27;;
18732;SDS011;9495;51.210;2.934;2022-11-20T10:07:48;21.00;;;10.47;;
18732;SDS011;9495;51.210;2.934;2022-11-20T10:10:28;15.80;;;8.87;;
18732;SDS011;9495;51.210;2.934;2022-11-20T10:13:15;16.13;;;9.10;;
18732;SDS011;9495;51.210;2.934;2022-11-20T10:15:54;15.53;;;8.73;;
18732;SDS011;9495;51.210;2.934;2022-11-20T10:18:35;17.33;;;8.50;;
18732;SDS011;9495;51.210;2.934;2022-11-20T10:21:13;16.40;;;7.47;;
18732;SDS011;9495;51.210;2.934;2022-11-20T10:23:54;11.80;;;6.83;;
18732;SDS011;9495;51.210;2.934;2022-11-20T10:26:39;13.07;;;7.10;;
18732;SDS011;9495;51.210;2.934;2022-11-20T10:29:13;17.43;;;6.87;;
18732;SDS011;9495;51.210;2.934;2022-11-20T10:31:43;13.07;;;5.77;;
18732;SDS011;9495;51.210;2.934;2022-11-20T10:34:16;7.63;;;4.90;;
18732;SDS011;9495;51.210;2.934;2022-11-20T10:36:52;9.57;;;4.40;;
18732;SDS011;9495;51.210;2.934;2022-11-20T10:39:25;5.70;;;3.60;;
18732;SDS011;9495;51.210;2.934;2022-11-20T10:42:02;8.07;;;4.20;;
18732;SDS011;9495;51.210;2.934;2022-11-20T10:44:38;8.07;;;3.93;;
18732;SDS011;9495;51.210;2.934;2022-11-20T10:47:33;5.37;;;3.33;;
18732;SDS011;9495;51.210;2.934;2022-11-20T10:50:02;9.67;;;4.43;;
18732;SDS011;9495;51.210;2.934;2022-11-20T10:52:37;10.43;;;4.37;;
18732;SDS011;9495;51.210;2.934;2022-11-20T10:55:17;10.50;;;3.77;;
18732;SDS011;9495;51.210;2.934;2022-11-20T10:57:56;9.03;;;4.40;;
18732;SDS011;9495;51.210;2.934;2022-11-20T11:00:33;10.80;;;4.17;;
18732;SDS011;9495;51.210;2.934;2022-11-20T11:03:02;7.00;;;3.80;;
18732;SDS011;9495;51.210;2.934;2022-11-20T11:05:39;9.37;;;3.83;;
18732;SDS011;9495;51.210;2.934;2022-11-20T11:08:12;5.53;;;3.20;;
18732;SDS011;9495;51.210;2.934;2022-11-20T11:10:46;8.77;;;3.30;;
18732;SDS011;9495;51.210;2.934;2022-11-20T11:13:20;9.43;;;4.20;;
18732;SDS011;9495;51.210;2.934;2022-11-20T11:15:49;14.70;;;7.73;;
18732;SDS011;9495;51.210;2.934;2022-11-20T11:18:25;22.57;;;12.67;;
18732;SDS011;9495;51.210;2.934;2022-11-20T11:20:54;12.27;;;7.27;;
18732;SDS011;9495;51.210;2.934;2022-11-20T11:23:29;14.23;;;6.30;;
18732;SDS011;9495;51.210;2.934;2022-11-20T11:26:00;6.97;;;4.43;;
18732;SDS011;9495;51.210;2.934;2022-11-20T11:28:32;7.10;;;4.10;;
18732;SDS011;9495;51.210;2.934;2022-11-20T11:31:00;9.10;;;3.33;;
18732;SDS011;9495;51.210;2.934;2022-11-20T11:33:29;7.63;;;4.13;;
18732;SDS011;9495;51.210;2.934;2022-11-20T11:36:01;6.53;;;3.67;;
18732;SDS011;9495;51.210;2.934;2022-11-20T11:38:32;10.57;;;3.97;;
18732;SDS011;9495;51.210;2.934;2022-11-20T11:41:03;11.00;;;5.10;;
18732;SDS011;9495;51.210;2.934;2022-11-20T11:43:35;14.23;;;5.93;;
18732;SDS011;9495;51.210;2.934;2022-11-20T11:46:24;9.50;;;5.77;;
18732;SDS011;9495;51.210;2.934;2022-11-20T11:48:57;10.83;;;5.80;;
18732;SDS011;9495;51.210;2.934;2022-11-20T11:51:26;11.47;;;6.60;;
18732;SDS011;9495;51.210;2.934;2022-11-20T11:54:01;11.77;;;6.90;;
18732;SDS011;9495;51.210;2.934;2022-11-20T11:56:41;12.47;;;7.10;;
18732;SDS011;9495;51.210;2.934;2022-11-20T11:59:12;13.93;;;7.43;;
18732;SDS011;9495;51.210;2.934;2022-11-20T12:01:51;12.17;;;7.20;;
18732;SDS011;9495;51.210;2.934;2022-11-20T12:04:24;10.53;;;7.27;;
18732;SDS011;9495;51.210;2.934;2022-11-20T12:07:08;13.30;;;7.27;;
18732;SDS011;9495;51.210;2.934;2022-11-20T12:10:00;11.07;;;7.07;;
18732;SDS011;9495;51.210;2.934;2022-11-20T12:12:31;9.60;;;6.07;;
18732;SDS011;9495;51.210;2.934;2022-11-20T12:15:07;11.30;;;5.63;;
18732;SDS011;9495;51.210;2.934;2022-11-20T12:17:40;10.00;;;5.50;;
18732;SDS011;9495;51.210;2.934;2022-11-20T12:20:11;9.07;;;5.30;;
18732;SDS011;9495;51.210;2.934;2022-11-20T12:22:44;8.70;;;5.50;;
18732;SDS011;9495;51.210;2.934;2022-11-20T12:25:20;9.83;;;5.20;;
18732;SDS011;9495;51.210;2.934;2022-11-20T12:28:01;8.60;;;5.30;;
18732;SDS011;9495;51.210;2.934;2022-11-20T12:30:50;7.23;;;3.87;;
18732;SDS011;9495;51.210;2.934;2022-11-20T12:33:32;6.40;;;4.27;;
18732;SDS011;9495;51.210;2.934;2022-11-20T12:36:17;8.03;;;4.30;;
18732;SDS011;9495;51.210;2.934;2022-11-20T12:39:03;8.07;;;4.20;;
18732;SDS011;9495;51.210;2.934;2022-11-20T12:42:01;6.27;;;3.70;;
18732;SDS011;9495;51.210;2.934;2022-11-20T12:45:09;7.30;;;4.43;;
18732;SDS011;9495;51.210;2.934;2022-11-20T12:47:59;9.10;;;4.10;;
18732;SDS011;9495;51.210;2.934;2022-11-20T12:50:43;5.70;;;3.50;;
18732;SDS011;9495;51.210;2.934;2022-11-20T12:53:40;7.07;;;3.23;;
18732;SDS011;9495;51.210;2.934;2022-11-20T12:56:18;5.33;;;3.20;;
18732;SDS011;9495;51.210;2.934;2022-11-20T12:58:58;4.07;;;2.63;;
18732;SDS011;9495;51.210;2.934;2022-11-20T13:01:40;4.00;;;2.03;;
18732;SDS011;9495;51.210;2.934;2022-11-20T13:04:23;5.50;;;2.53;;
18732;SDS011;9495;51.210;2.934;2022-11-20T13:07:13;3.67;;;2.53;;
18732;SDS011;9495;51.210;2.934;2022-11-20T13:09:46;2.77;;;2.47;;
18732;SDS011;9495;51.210;2.934;2022-11-20T13:12:18;4.47;;;2.93;;
18732;SDS011;9495;51.210;2.934;2022-11-20T13:14:52;3.03;;;2.37;;
18732;SDS011;9495;51.210;2.934;2022-11-20T13:17:28;5.93;;;2.40;;
18732;SDS011;9495;51.210;2.934;2022-11-20T13:20:06;2.67;;;2.20;;
18732;SDS011;9495;51.210;2.934;2022-11-20T13:22:43;3.70;;;2.17;;
18732;SDS011;9495;51.210;2.934;2022-11-20T13:25:22;5.50;;;2.60;;
18732;SDS011;9495;51.210;2.934;2022-11-20T13:27:51;3.17;;;2.83;;
18732;SDS011;9495;51.210;2.934;2022-11-20T13:30:20;2.93;;;2.63;;
18732;SDS011;9495;51.210;2.934;2022-11-20T13:32:50;4.50;;;2.90;;
18732;SDS011;9495;51.210;2.934;2022-11-20T13:35:29;5.30;;;3.20;;
18732;SDS011;9495;51.210;2.934;2022-11-20T13:38:00;7.70;;;3.67;;
18732;SDS011;9495;51.210;2.934;2022-11-20T13:40:30;3.93;;;3.07;;
18732;SDS011;9495;51.210;2.934;2022-11-20T13:43:02;9.87;;;3.07;;
18732;SDS011;9495;51.210;2.934;2022-11-20T13:45:35;9.27;;;2.10;;
18732;SDS011;9495;51.210;2.934;2022-11-20T13:48:04;11.47;;;3.40;;
18732;SDS011;9495;51.210;2.934;2022-11-20T13:50:53;12.93;;;2.67;;
18732;SDS011;9495;51.210;2.934;2022-11-20T13:53:42;10.13;;;2.50;;
18732;SDS011;9495;51.210;2.934;2022-11-20T13:56:34;13.90;;;2.87;;
18732;SDS011;9495;51.210;2.934;2022-11-20T13:59:13;10.23;;;2.40;;
18732;SDS011;9495;51.210;2.934;2022-11-20T14:01:52;8.47;;;2.10;;
18732;SDS011;9495;51.210;2.934;2022-11-20T14:04:23;15.23;;;3.10;;
18732;SDS011;9495;51.210;2.934;2022-11-20T14:06:55;14.07;;;3.00;;
18732;SDS011;9495;51.210;2.934;2022-11-20T14:09:26;17.73;;;3.90;;
18732;SDS011;9495;51.210;2.934;2022-11-20T14:11:56;20.53;;;3.70;;
18732;SDS011;9495;51.210;2.934;2022-11-20T14:14:24;14.63;;;3.83;;
18732;SDS011;9495;51.210;2.934;2022-11-20T14:17:04;11.43;;;2.57;;
18732;SDS011;9495;51.210;2.934;2022-11-20T14:19:33;14.23;;;3.47;;
18732;SDS011;9495;51.210;2.934;2022-11-20T14:22:09;14.10;;;3.50;;
18732;SDS011;9495;51.210;2.934;2022-11-20T14:24:43;16.47;;;3.73;;
18732;SDS011;9495;51.210;2.934;2022-11-20T14:27:12;23.23;;;3.97;;
18732;SDS011;9495;51.210;2.934;2022-11-20T14:29:42;19.63;;;4.30;;
18732;SDS011;9495;51.210;2.934;2022-11-20T14:32:14;16.83;;;3.27;;
18732;SDS011;9495;51.210;2.934;2022-11-20T14:34:44;16.30;;;4.20;;
18732;SDS011;9495;51.210;2.934;2022-11-20T14:37:19;14.67;;;3.57;;
18732;SDS011;9495;51.210;2.934;2022-11-20T14:39:51;13.33;;;2.70;;
18732;SDS011;9495;51.210;2.934;2022-11-20T14:42:20;22.17;;;4.40;;
18732;SDS011;9495;51.210;2.934;2022-11-20T14:44:52;17.33;;;3.57;;
18732;SDS011;9495;51.210;2.934;2022-11-20T14:47:23;11.57;;;3.30;;
18732;SDS011;9495;51.210;2.934;2022-11-20T14:49:53;14.07;;;3.43;;
18732;SDS011;9495;51.210;2.934;2022-11-20T14:52:24;14.10;;;3.77;;
18732;SDS011;9495;51.210;2.934;2022-11-20T14:54:54;18.00;;;3.60;;
18732;SDS011;9495;51.210;2.934;2022-11-20T14:57:26;20.10;;;3.67;;
18732;SDS011;9495;51.210;2.934;2022-11-20T15:00:05;10.87;;;2.90;;
18732;SDS011;9495;51.210;2.934;2022-11-20T15:02:38;13.33;;;3.23;;
18732;SDS011;9495;51.210;2.934;2022-11-20T15:05:08;11.47;;;2.40;;